KCEZ

Details ICAO KCEZ (CEZ)
Name CORTEZ MUNI
Region United States
Timezone America/Denver (UTC-7.0)
Plans Departing 14
Arriving 7
Stats Elevation 5,918 ft / 1,804 m (AMSL)
Location 37.303003° -108.628042°
Runways 1
Magnetic Variation 9.647° E
Sunrise 2017-12-12 14:20:54 UTC / 2017-12-12 07:20:54 Local
Sunset 2017-12-12 23:58:43 UTC / 2017-12-12 16:58:43 Local
Advertisement - Login to hide

Runways

ID Width Length Bearing (true) Bearing (mag) Surface Threshold Offset Overrun Length
03 100 ft / 30 m 7,205 ft / 2,196 m 41.42° 31.77° Asphalt 0 ft / 0 m 0 ft / 0 m
21 100 ft / 30 m 7,205 ft / 2,196 m 221.43° 211.78° Asphalt 0 ft / 0 m 0 ft / 0 m

Map

Weather


0- 5 10 15 20 25 30 35+ Temperature / ° C

Clouds and Precipitation
Forecast for 2017-12-13 06:00 UTC. Updated 39 minutes ago

Ground ~20,000 ft ~40,000 ft Winds

METAR

KCEZ 130053Z AUTO 00000KT 10SM CLR 00/M16 A3033 RMK AO2 SLP302 T00001161

TAF

Not found

Frequencies

Recorded 135.62 MHz ASOS
Unicom 122.80 MHz CTAF/UNICOM
Warning: Do not use this data for real-world aviation or navigation. No guarantee of current accuracy is given.